Time;durP1;ratioP1;P1;durP2;ratioP2;P2;SDS_P1;SDS_P2;PMS_P1;PMS_P2;Temp;Humidity;BMP_temperature;BMP_pressure;BME280_temperature;BME280_humidity;BME280_pressure;Samples;Min_cycle;Max_cycle;Signal;HPM_P1;HPM_P2
2023/12/09 00:00:10;;;;;;;2.13;1.23;;;16.70;48.10;;;;;;5071131;28;20078;-68
2023/12/09 00:02:36;;;;;;;2.80;1.17;;;16.70;48.10;;;;;;5071369;28;20365;-68
2023/12/09 00:05:02;;;;;;;3.42;1.30;;;16.70;48.10;;;;;;5072924;28;20047;-68
2023/12/09 00:07:28;;;;;;;2.08;1.17;;;16.70;48.10;;;;;;5071091;28;20041;-68
2023/12/09 00:09:53;;;;;;;3.13;1.50;;;16.70;48.10;;;;;;5071100;28;20044;-67
2023/12/09 00:12:19;;;;;;;3.38;1.80;;;16.60;48.10;;;;;;5070918;28;20056;-68
2023/12/09 00:14:45;;;;;;;2.40;1.30;;;16.70;48.30;;;;;;5072252;28;20033;-68
2023/12/09 00:17:10;;;;;;;2.63;1.63;;;16.60;48.20;;;;;;5071994;28;20472;-68
2023/12/09 00:19:36;;;;;;;4.18;1.27;;;16.70;48.30;;;;;;5072370;28;20033;-68
2023/12/09 00:22:02;;;;;;;2.03;1.25;;;16.60;48.30;;;;;;5071066;28;20527;-68
2023/12/09 00:24:27;;;;;;;3.03;1.40;;;16.60;48.30;;;;;;5072339;28;20047;-68
2023/12/09 00:26:53;;;;;;;3.22;1.40;;;16.60;48.30;;;;;;5072166;28;20032;-68
2023/12/09 00:29:19;;;;;;;2.88;1.50;;;16.60;48.30;;;;;;5071036;28;20424;-68
2023/12/09 00:31:44;;;;;;;3.53;1.60;;;16.60;48.40;;;;;;5071811;28;20503;-68
2023/12/09 00:34:10;;;;;;;3.25;1.40;;;16.60;48.40;;;;;;5071019;28;20037;-68
2023/12/09 00:36:36;;;;;;;4.03;1.30;;;16.60;48.40;;;;;;5070764;28;20091;-68
2023/12/09 00:39:01;;;;;;;2.20;1.60;;;16.60;48.50;;;;;;5070653;28;20063;-68
2023/12/09 00:41:27;;;;;;;4.40;1.77;;;16.60;48.40;;;;;;5071892;28;20376;-68
2023/12/09 00:43:52;;;;;;;2.53;1.20;;;16.60;48.50;;;;;;5071921;28;20386;-68
2023/12/09 00:46:20;;;;;;;3.45;1.35;;;16.50;48.40;;;;;;5070419;28;20047;-68
2023/12/09 00:48:45;;;;;;;2.78;1.15;;;16.50;48.40;;;;;;5071848;28;20419;-68
2023/12/09 00:51:11;;;;;;;2.53;1.45;;;16.50;48.50;;;;;;5070429;28;20102;-68
2023/12/09 00:53:37;;;;;;;4.03;1.40;;;16.50;48.50;;;;;;5070205;28;20098;-68
2023/12/09 00:56:03;;;;;;;2.78;1.52;;;16.50;48.50;;;;;;5070518;28;20044;-68
2023/12/09 00:58:28;;;;;;;2.20;0.90;;;16.50;48.60;;;;;;5070431;28;20043;-68
2023/12/09 01:00:54;;;;;;;2.78;1.75;;;16.50;48.60;;;;;;5071889;28;20165;-68
2023/12/09 01:03:20;;;;;;;2.50;1.20;;;16.50;48.70;;;;;;5070556;28;20037;-69
2023/12/09 01:05:45;;;;;;;2.40;1.55;;;16.50;48.70;;;;;;5070411;28;20468;-68
2023/12/09 01:08:11;;;;;;;3.30;1.50;;;16.50;48.70;;;;;;5071820;28;20115;-68
2023/12/09 01:10:36;;;;;;;4.60;1.83;;;16.40;48.70;;;;;;5071579;28;20387;-71
2023/12/09 01:13:02;;;;;;;2.05;1.23;;;16.40;48.70;;;;;;5070649;28;20063;-68
2023/12/09 01:15:28;;;;;;;2.85;1.25;;;16.40;48.70;;;;;;5070574;28;20044;-68
2023/12/09 01:17:53;;;;;;;2.47;0.95;;;16.40;48.80;;;;;;5070230;28;20419;-68
2023/12/09 01:20:19;;;;;;;3.08;1.25;;;16.40;48.80;;;;;;5070232;28;20098;-68
2023/12/09 01:22:44;;;;;;;2.25;0.98;;;16.40;48.90;;;;;;5071299;28;20048;-68
2023/12/09 01:25:10;;;;;;;3.38;1.38;;;16.40;48.90;;;;;;5070195;28;20047;-68
2023/12/09 01:27:36;;;;;;;1.95;1.20;;;16.40;48.90;;;;;;5070083;28;20037;-68
2023/12/09 01:30:03;;;;;;;3.35;1.83;;;16.40;48.90;;;;;;5070054;28;20048;-68
2023/12/09 01:32:29;;;;;;;3.10;1.45;;;16.30;48.90;;;;;;5070042;28;20041;-68
2023/12/09 01:34:55;;;;;;;2.47;1.20;;;16.40;48.90;;;;;;5070002;28;20044;-68
2023/12/09 01:37:22;;;;;;;3.38;1.30;;;16.30;49.00;;;;;;5070431;28;20051;-68
2023/12/09 01:39:47;;;;;;;1.75;0.95;;;16.40;49.10;;;;;;5070029;28;20032;-68
2023/12/09 01:42:13;;;;;;;2.33;1.00;;;16.30;49.00;;;;;;5070310;28;20102;-68
2023/12/09 01:44:39;;;;;;;3.03;1.30;;;16.30;49.10;;;;;;5070042;28;20113;-68
2023/12/09 01:47:05;;;;;;;2.17;1.55;;;16.30;49.20;;;;;;5070017;28;20051;-68
2023/12/09 01:49:33;;;;;;;2.78;1.27;;;16.30;49.30;;;;;;5071125;28;20072;-68
2023/12/09 01:52:01;;;;;;;2.13;1.20;;;16.20;49.30;;;;;;5069748;28;20040;-68
2023/12/09 01:54:27;;;;;;;2.25;0.85;;;16.20;49.40;;;;;;5071143;28;20039;-68
2023/12/09 01:56:54;;;;;;;2.47;1.45;;;16.20;49.40;;;;;;5069895;28;20044;-71
2023/12/09 01:59:21;;;;;;;2.70;1.40;;;16.20;49.50;;;;;;5073021;28;20097;-68
2023/12/09 02:01:49;;;;;;;3.03;1.35;;;16.20;49.60;;;;;;5074690;28;20051;-68
2023/12/09 02:04:15;;;;;;;2.10;1.05;;;16.20;49.60;;;;;;5073343;28;20108;-68
2023/12/09 02:06:41;;;;;;;3.42;1.67;;;16.10;49.60;;;;;;5074758;28;20037;-68
2023/12/09 02:09:07;;;;;;;2.80;1.27;;;16.10;49.60;;;;;;5074752;28;20555;-68
2023/12/09 02:11:59;;;;;;;2.45;1.00;;;16.10;49.60;;;;;;5056499;28;20051;-72
2023/12/09 02:14:53;;;;;;;3.60;0.95;;;16.10;49.60;;;;;;5073421;28;20075;-68
2023/12/09 02:17:24;;;;;;;2.65;1.13;;;16.10;49.60;;;;;;5074314;28;20036;-68
2023/12/09 02:19:51;;;;;;;2.97;1.08;;;16.10;49.70;;;;;;5074614;28;20064;-68
2023/12/09 02:22:16;;;;;;;2.00;1.00;;;16.10;49.80;;;;;;5073218;28;20048;-68
2023/12/09 02:24:42;;;;;;;1.90;1.20;;;16.10;49.80;;;;;;5056759;28;20044;-68
2023/12/09 02:29:59;;;;;;;1.85;1.10;;;16.00;49.80;;;;;;5130415;27;20379;-66
2023/12/09 02:32:30;;;;;;;3.13;1.33;;;16.10;49.90;;;;;;5129175;28;20043;-66
2023/12/09 02:34:58;;;;;;;4.47;1.58;;;16.00;49.80;;;;;;5129008;28;20044;-66
2023/12/09 02:37:26;;;;;;;4.72;1.30;;;16.00;49.90;;;;;;5129073;28;20088;-66
2023/12/09 02:39:52;;;;;;;2.45;1.20;;;16.00;49.90;;;;;;5128915;28;20074;-66
2023/12/09 02:42:18;;;;;;;2.47;1.38;;;16.00;50.00;;;;;;5128730;28;20041;-66
2023/12/09 02:44:45;;;;;;;3.60;1.17;;;16.00;50.00;;;;;;5128812;28;20035;-66
2023/12/09 02:47:12;;;;;;;2.50;1.02;;;16.00;50.10;;;;;;5128702;28;20048;-66
2023/12/09 02:49:38;;;;;;;3.58;1.60;;;16.00;50.10;;;;;;5128658;28;20047;-66
2023/12/09 02:52:04;;;;;;;1.20;0.98;;;16.00;50.10;;;;;;5128591;28;20445;-66
2023/12/09 02:54:30;;;;;;;2.50;1.02;;;15.90;50.10;;;;;;5128698;28;20093;-66
2023/12/09 02:56:55;;;;;;;3.83;1.25;;;15.90;50.20;;;;;;5128780;28;20044;-66
2023/12/09 02:59:21;;;;;;;1.60;0.80;;;15.90;50.10;;;;;;5128743;28;20050;-66
2023/12/09 03:01:47;;;;;;;2.47;1.30;;;15.90;50.10;;;;;;5128420;28;20165;-66
2023/12/09 03:04:13;;;;;;;3.83;0.82;;;15.90;50.10;;;;;;5129684;28;20031;-66
2023/12/09 03:06:39;;;;;;;3.20;1.20;;;15.90;50.20;;;;;;5128574;28;20031;-66
2023/12/09 03:09:05;;;;;;;2.67;1.15;;;15.90;50.20;;;;;;5128134;28;20483;-66
2023/12/09 03:11:30;;;;;;;2.20;0.90;;;15.90;50.20;;;;;;5128537;28;20062;-66
2023/12/09 03:13:56;;;;;;;2.03;0.63;;;15.90;50.20;;;;;;5129681;28;20027;-66
2023/12/09 03:16:22;;;;;;;2.00;1.02;;;15.90;50.20;;;;;;5128453;28;20040;-66
2023/12/09 03:18:47;;;;;;;3.35;1.23;;;15.90;50.30;;;;;;5128298;28;20039;-66
2023/12/09 03:21:15;;;;;;;3.05;1.02;;;15.90;50.30;;;;;;5128364;28;20492;-66
2023/12/09 03:23:42;;;;;;;2.92;1.08;;;15.90;50.30;;;;;;5128012;28;20371;-66
2023/12/09 03:26:16;;;;;;;3.35;1.13;;;15.90;50.30;;;;;;5128246;28;20051;-69
2023/12/09 03:28:42;;;;;;;3.25;1.15;;;15.90;50.30;;;;;;5128925;27;20485;-66
2023/12/09 03:31:10;;;;;;;3.20;1.30;;;15.90;50.40;;;;;;5127909;28;20071;-66
2023/12/09 03:33:36;;;;;;;1.88;1.10;;;15.90;50.40;;;;;;5129043;27;20047;-66
2023/12/09 03:36:02;;;;;;;3.40;1.40;;;15.90;50.50;;;;;;5129154;27;20394;-66
2023/12/09 03:38:28;;;;;;;2.88;1.33;;;15.80;50.40;;;;;;5129018;27;20471;-66
2023/12/09 03:40:54;;;;;;;1.90;0.90;;;15.80;51.10;;;;;;5115536;28;20096;-67
2023/12/09 03:43:19;;;;;;;3.17;1.35;;;15.80;50.40;;;;;;5114177;28;20564;-66
2023/12/09 03:45:45;;;;;;;2.42;0.98;;;15.80;50.40;;;;;;5115361;28;20043;-66
2023/12/09 03:48:10;;;;;;;2.63;0.95;;;15.80;50.40;;;;;;5114061;28;20081;-66
2023/12/09 03:50:36;;;;;;;3.95;1.38;;;15.80;50.50;;;;;;5115215;28;20543;-66
2023/12/09 03:53:02;;;;;;;2.50;0.93;;;15.80;50.50;;;;;;5130906;27;20117;-69
2023/12/09 03:55:28;;;;;;;2.97;1.08;;;15.80;50.50;;;;;;5115407;28;20391;-70
2023/12/09 03:57:53;;;;;;;1.85;0.88;;;15.80;50.60;;;;;;5113964;28;20040;-69
2023/12/09 04:00:19;;;;;;;1.92;1.05;;;15.80;50.60;;;;;;5113609;28;20475;-69
2023/12/09 04:02:45;;;;;;;3.60;1.10;;;15.80;50.60;;;;;;5113852;28;20043;-68
2023/12/09 04:05:11;;;;;;;2.70;1.00;;;15.80;50.60;;;;;;5114816;28;20046;-68
2023/12/09 04:07:36;;;;;;;2.22;1.35;;;15.80;50.60;;;;;;5114750;28;20039;-67
2023/12/09 04:10:03;;;;;;;2.78;1.08;;;15.80;50.60;;;;;;5113663;28;20042;-68
2023/12/09 04:12:29;;;;;;;2.10;1.20;;;15.80;50.60;;;;;;5113683;28;20059;-68
2023/12/09 04:14:54;;;;;;;4.88;1.23;;;15.80;50.70;;;;;;5113383;28;20043;-66
2023/12/09 04:17:21;;;;;;;2.75;1.20;;;15.70;50.60;;;;;;5113298;28;20231;-70
2023/12/09 04:19:47;;;;;;;2.08;1.23;;;15.70;50.60;;;;;;5114535;28;20123;-69
2023/12/09 04:22:13;;;;;;;3.40;1.13;;;15.70;50.70;;;;;;5113519;28;20357;-68
2023/12/09 04:24:40;;;;;;;2.97;1.08;;;15.70;50.70;;;;;;5113449;28;20063;-67
2023/12/09 04:27:06;;;;;;;3.38;1.48;;;15.70;50.70;;;;;;5113140;28;20047;-69
2023/12/09 04:29:32;;;;;;;3.00;1.15;;;15.70;50.70;;;;;;5114083;27;20048;-66
2023/12/09 04:31:57;;;;;;;2.05;0.80;;;15.70;50.70;;;;;;5113012;28;20047;-66
2023/12/09 04:34:23;;;;;;;2.17;0.90;;;15.70;50.70;;;;;;5113010;28;20039;-66
2023/12/09 04:36:49;;;;;;;3.00;1.27;;;15.70;50.80;;;;;;5114266;28;20047;-67
2023/12/09 04:39:14;;;;;;;2.15;0.90;;;15.70;50.80;;;;;;5112859;28;20066;-69
2023/12/09 04:41:40;;;;;;;2.92;1.15;;;15.70;50.90;;;;;;5113961;28;20039;-69
2023/12/09 04:44:06;;;;;;;2.33;1.08;;;15.70;50.80;;;;;;5112837;28;20035;-69
2023/12/09 04:46:31;;;;;;;2.60;1.00;;;15.70;50.90;;;;;;5112721;28;20042;-69
2023/12/09 04:48:57;;;;;;;3.53;0.98;;;15.70;50.90;;;;;;5113980;28;20035;-66
2023/12/09 04:51:23;;;;;;;2.85;1.20;;;15.70;50.90;;;;;;5111804;28;20088;-69
2023/12/09 04:53:49;;;;;;;2.72;1.02;;;15.70;51.00;;;;;;5112872;28;20050;-67
2023/12/09 04:56:15;;;;;;;3.15;1.30;;;15.60;50.90;;;;;;5112443;28;20035;-66
2023/12/09 04:58:40;;;;;;;2.63;1.08;;;15.60;50.90;;;;;;5112546;28;20468;-68
2023/12/09 05:01:06;;;;;;;4.95;1.67;;;15.60;50.90;;;;;;5112732;28;20082;-69
2023/12/09 05:03:31;;;;;;;1.67;0.93;;;15.60;50.90;;;;;;5113755;28;20402;-69
2023/12/09 05:05:59;;;;;;;2.50;1.05;;;15.60;50.90;;;;;;5113609;28;20043;-67
2023/12/09 05:08:24;;;;;;;2.28;1.02;;;15.60;50.90;;;;;;5112286;28;20124;-66
2023/12/09 05:10:50;;;;;;;1.85;0.60;;;15.60;50.90;;;;;;5112314;28;20120;-69
2023/12/09 05:13:15;;;;;;;2.63;1.02;;;15.60;51.00;;;;;;5112155;28;20071;-66
2023/12/09 05:15:41;;;;;;;3.67;1.15;;;15.60;51.00;;;;;;5112260;28;20036;-69
2023/12/09 05:18:07;;;;;;;1.83;0.95;;;15.60;51.00;;;;;;5112337;28;20044;-66
2023/12/09 05:20:33;;;;;;;2.60;1.60;;;15.60;51.00;;;;;;5112396;28;20048;-66
2023/12/09 05:22:58;;;;;;;2.70;0.90;;;15.60;51.00;;;;;;5113376;28;20040;-68
2023/12/09 05:25:24;;;;;;;2.50;1.17;;;15.60;51.00;;;;;;5112047;28;20051;-69
2023/12/09 05:27:50;;;;;;;3.80;0.93;;;15.60;51.10;;;;;;5111446;28;20044;-69
2023/12/09 05:30:16;;;;;;;2.55;0.85;;;15.60;51.10;;;;;;5113200;28;20036;-66
2023/12/09 05:32:42;;;;;;;1.60;0.85;;;15.60;51.10;;;;;;5111733;28;20038;-66
2023/12/09 05:35:08;;;;;;;2.28;0.88;;;15.50;51.10;;;;;;5113219;28;20043;-66
2023/12/09 05:37:34;;;;;;;3.08;1.00;;;15.60;51.10;;;;;;5111662;28;20118;-68
2023/12/09 05:39:59;;;;;;;2.03;0.80;;;15.50;51.10;;;;;;5112982;27;20110;-69
2023/12/09 05:42:25;;;;;;;3.15;0.90;;;15.60;51.20;;;;;;5111791;28;20176;-69
2023/12/09 05:44:51;;;;;;;3.20;0.98;;;15.50;51.10;;;;;;5111640;28;20055;-68
2023/12/09 05:47:16;;;;;;;2.13;0.95;;;15.50;51.10;;;;;;5112719;28;20032;-69
2023/12/09 05:49:42;;;;;;;2.08;0.85;;;15.50;51.10;;;;;;5111485;28;20088;-68
2023/12/09 05:52:08;;;;;;;2.78;0.90;;;15.50;51.10;;;;;;5112852;28;20035;-66
2023/12/09 05:54:36;;;;;;;4.00;1.20;;;15.50;51.10;;;;;;5111368;28;20063;-66
2023/12/09 05:57:02;;;;;;;1.73;1.05;;;15.50;51.20;;;;;;5111729;28;20423;-70
2023/12/09 05:59:27;;;;;;;2.17;0.90;;;15.50;51.20;;;;;;5111249;28;20043;-66
2023/12/09 06:01:55;;;;;;;1.45;0.70;;;15.50;51.20;;;;;;5111377;28;20084;-66
2023/12/09 06:04:20;;;;;;;2.50;0.77;;;15.50;51.20;;;;;;5111208;28;20044;-66
2023/12/09 06:06:46;;;;;;;3.42;0.90;;;15.50;51.20;;;;;;5111249;28;20047;-68
2023/12/09 06:09:11;;;;;;;1.58;0.88;;;15.50;51.20;;;;;;5112384;28;20039;-66
2023/12/09 06:11:37;;;;;;;3.35;0.80;;;15.50;51.20;;;;;;5112525;28;20475;-69
2023/12/09 06:14:03;;;;;;;3.40;1.20;;;15.50;51.20;;;;;;5111180;28;20118;-69
2023/12/09 06:16:28;;;;;;;2.03;1.27;;;15.40;51.20;;;;;;5112752;28;20484;-66
2023/12/09 06:18:54;;;;;;;3.42;0.98;;;15.50;51.40;;;;;;5111379;28;20130;-70
2023/12/09 06:21:24;;;;;;;1.92;0.85;;;15.50;51.30;;;;;;5111147;28;20386;-70
2023/12/09 06:23:50;;;;;;;2.05;0.90;;;15.50;51.30;;;;;;5111097;28;20047;-66
2023/12/09 06:26:17;;;;;;;1.52;1.10;;;15.40;51.30;;;;;;5111406;28;20070;-69
2023/12/09 06:28:43;;;;;;;2.65;0.82;;;15.50;51.30;;;;;;5110667;28;20052;-69
2023/12/09 06:31:10;;;;;;;2.35;1.00;;;15.40;51.30;;;;;;5112336;28;20048;-69
2023/12/09 06:33:36;;;;;;;1.98;0.73;;;15.40;51.30;;;;;;5110972;28;20112;-66
2023/12/09 06:36:02;;;;;;;2.88;0.90;;;15.40;51.30;;;;;;5111403;28;20035;-69
2023/12/09 06:38:29;;;;;;;3.45;0.93;;;15.40;51.30;;;;;;5111295;28;20384;-66
2023/12/09 06:40:55;;;;;;;1.77;0.88;;;15.40;51.40;;;;;;5111098;28;20058;-69
2023/12/09 06:43:20;;;;;;;2.47;0.80;;;15.40;51.30;;;;;;5110823;28;20165;-69
2023/12/09 06:45:46;;;;;;;2.28;0.80;;;15.40;51.40;;;;;;5110781;28;20051;-69
2023/12/09 06:48:12;;;;;;;3.88;1.63;;;15.40;51.40;;;;;;5112135;28;20043;-69
2023/12/09 06:50:38;;;;;;;2.42;0.93;;;15.40;51.40;;;;;;5110973;28;20402;-69
2023/12/09 06:53:04;;;;;;;3.83;1.05;;;15.40;51.40;;;;;;5111126;28;20383;-69
2023/12/09 06:55:30;;;;;;;2.80;1.00;;;15.40;51.40;;;;;;5111025;28;20043;-66
2023/12/09 06:57:56;;;;;;;3.80;1.10;;;15.40;51.40;;;;;;5111159;28;20039;-66
2023/12/09 07:00:22;;;;;;;3.60;0.68;;;15.40;51.40;;;;;;5111924;28;20440;-66
2023/12/09 07:02:47;;;;;;;3.20;0.90;;;15.40;51.50;;;;;;5112294;28;20039;-69
2023/12/09 07:05:13;;;;;;;2.55;0.88;;;15.40;51.50;;;;;;5110917;28;20534;-69
2023/12/09 07:07:40;;;;;;;1.63;0.77;;;15.40;51.50;;;;;;5110645;28;20090;-66
2023/12/09 07:10:07;;;;;;;1.23;0.60;;;15.40;51.50;;;;;;5110971;28;20118;-68
2023/12/09 07:12:32;;;;;;;2.33;0.90;;;15.40;51.50;;;;;;5110698;28;20044;-68
2023/12/09 07:14:59;;;;;;;1.38;0.60;;;15.40;51.50;;;;;;5112007;28;20066;-69
2023/12/09 07:17:25;;;;;;;1.42;0.88;;;15.30;51.50;;;;;;5114752;28;20043;-70
2023/12/09 07:19:52;;;;;;;2.30;0.90;;;15.30;51.50;;;;;;5114517;28;20050;-69
2023/12/09 07:22:19;;;;;;;2.20;0.75;;;15.30;51.50;;;;;;5115762;28;20044;-69
2023/12/09 07:24:44;;;;;;;2.45;0.70;;;15.30;51.50;;;;;;5114389;28;20554;-66
2023/12/09 07:27:10;;;;;;;2.03;1.00;;;15.30;51.50;;;;;;5115491;28;20153;-66
2023/12/09 07:29:35;;;;;;;2.22;0.70;;;15.30;51.50;;;;;;5113971;28;20059;-69
2023/12/09 07:32:02;;;;;;;1.63;0.65;;;15.30;51.60;;;;;;5115604;28;20071;-69
2023/12/09 07:34:28;;;;;;;3.05;0.93;;;15.30;51.60;;;;;;5114412;28;20538;-69
2023/12/09 07:36:53;;;;;;;2.10;0.82;;;15.30;51.60;;;;;;5114103;28;20082;-68
2023/12/09 07:39:19;;;;;;;2.67;0.80;;;15.30;51.60;;;;;;5114080;28;20047;-69
2023/12/09 07:41:44;;;;;;;2.72;0.80;;;15.30;51.70;;;;;;5114010;28;20134;-69
2023/12/09 07:44:10;;;;;;;3.10;1.00;;;15.30;51.60;;;;;;5115302;28;20075;-68
2023/12/09 07:46:36;;;;;;;2.47;1.05;;;15.30;51.60;;;;;;5113846;28;20062;-69
2023/12/09 07:49:02;;;;;;;3.08;0.85;;;15.30;51.70;;;;;;5113799;28;20048;-69
2023/12/09 07:51:27;;;;;;;3.15;0.75;;;15.30;51.60;;;;;;5113789;28;20054;-69
2023/12/09 07:53:53;;;;;;;1.95;0.98;;;15.20;51.60;;;;;;5115286;28;20038;-66
2023/12/09 07:56:19;;;;;;;3.38;1.08;;;15.30;51.70;;;;;;5113922;28;20039;-69
2023/12/09 07:58:45;;;;;;;3.15;0.90;;;15.30;51.70;;;;;;5113702;28;20036;-66
2023/12/09 08:01:11;;;;;;;3.30;0.73;;;15.20;51.60;;;;;;5113589;28;20521;-69
2023/12/09 08:03:37;;;;;;;3.22;0.77;;;15.30;51.70;;;;;;5114908;28;20064;-66
2023/12/09 08:06:03;;;;;;;2.17;0.68;;;15.20;51.60;;;;;;5113901;28;20127;-66
2023/12/09 08:08:29;;;;;;;1.70;0.82;;;15.20;51.60;;;;;;5113924;28;20044;-67
2023/12/09 08:10:54;;;;;;;1.67;0.75;;;15.20;51.60;;;;;;5113541;28;20054;-66
2023/12/09 08:13:20;;;;;;;1.95;0.70;;;15.50;51.50;;;;;;5113360;28;20118;-65
2023/12/09 08:15:46;;;;;;;3.55;1.30;;;16.00;50.60;;;;;;5113358;28;20073;-65
2023/12/09 08:18:12;;;;;;;3.50;1.10;;;16.40;50.10;;;;;;5113453;28;20100;-66
2023/12/09 08:20:37;;;;;;;6.63;1.20;;;16.80;49.50;;;;;;5113583;28;20047;-66
2023/12/09 08:23:04;;;;;;;4.38;1.20;;;17.20;48.80;;;;;;5108868;28;20039;-65
2023/12/09 08:25:29;;;;;;;3.60;1.63;;;17.60;48.10;;;;;;5112625;28;20043;-66
2023/12/09 08:27:55;;;;;;;4.85;1.38;;;18.00;47.40;;;;;;5111244;28;20051;-66
2023/12/09 08:30:21;;;;;;;2.92;1.30;;;18.50;46.70;;;;;;5113192;28;20077;-66
2023/12/09 08:32:46;;;;;;;4.93;1.00;;;19.10;46.00;;;;;;5111912;28;20036;-65
2023/12/09 08:35:12;;;;;;;3.05;0.50;;;19.60;45.10;;;;;;5113172;28;20032;-67
2023/12/09 08:37:38;;;;;;;2.92;0.70;;;20.20;45.00;;;;;;5112324;28;20249;-67
2023/12/09 08:40:11;;;;;;;3.55;0.80;;;20.80;42.90;;;;;;5111823;28;20032;-67
2023/12/09 08:42:40;;;;;;;4.22;1.33;;;21.40;41.60;;;;;;5111785;28;20051;-68
2023/12/09 08:45:09;;;;;;;3.85;1.20;;;22.00;40.50;;;;;;5112906;28;20558;-66
2023/12/09 08:47:35;;;;;;;3.65;0.73;;;22.60;39.40;;;;;;5111637;28;20051;-67
2023/12/09 08:50:02;;;;;;;4.30;1.00;;;23.00;38.40;;;;;;5111524;28;20047;-68
2023/12/09 08:52:27;;;;;;;3.05;1.05;;;23.50;37.80;;;;;;5111505;28;20051;-68
2023/12/09 08:54:54;;;;;;;3.65;0.82;;;23.70;37.30;;;;;;5112880;28;20031;-68
2023/12/09 08:57:19;;;;;;;4.28;0.77;;;23.80;37.00;;;;;;5111401;28;20119;-68
2023/12/09 08:59:45;;;;;;;2.22;1.10;;;23.90;36.90;;;;;;5111441;28;20119;-68
2023/12/09 09:02:10;;;;;;;4.03;0.80;;;24.00;36.80;;;;;;5111416;28;20051;-67
2023/12/09 09:04:36;;;;;;;3.65;0.80;;;24.20;36.90;;;;;;5112692;28;20044;-66
2023/12/09 09:07:02;;;;;;;2.45;0.70;;;24.10;36.90;;;;;;5111448;28;20499;-67
2023/12/09 09:09:27;;;;;;;4.85;0.82;;;24.00;37.00;;;;;;5111361;28;20036;-68
2023/12/09 09:11:53;;;;;;;4.20;1.10;;;23.90;37.30;;;;;;5111484;28;20051;-67
2023/12/09 09:14:18;;;;;;;2.35;0.60;;;24.10;37.20;;;;;;5111420;28;20101;-67
2023/12/09 09:16:44;;;;;;;3.97;0.80;;;24.30;37.00;;;;;;5111228;28;20440;-68
2023/12/09 09:19:09;;;;;;;3.50;0.80;;;24.60;36.50;;;;;;5094498;28;20036;-67
2023/12/09 09:21:35;;;;;;;2.40;0.70;;;24.50;36.50;;;;;;5111624;28;20044;-66
2023/12/09 09:24:01;;;;;;;2.58;0.65;;;24.40;36.70;;;;;;5111173;28;20047;-66
2023/12/09 09:26:26;;;;;;;3.88;0.80;;;24.30;37.00;;;;;;5111177;28;20032;-68
2023/12/09 09:28:52;;;;;;;2.22;0.55;;;24.10;37.20;;;;;;5111533;28;20092;-67
2023/12/09 09:31:17;;;;;;;5.20;0.80;;;24.00;37.60;;;;;;5112063;28;20055;-66
2023/12/09 09:33:43;;;;;;;1.73;0.57;;;24.00;37.70;;;;;;5112975;28;20357;-66
2023/12/09 09:36:09;;;;;;;3.70;0.50;;;24.00;37.80;;;;;;5111617;28;20063;-66
2023/12/09 09:38:35;;;;;;;5.15;1.27;;;23.90;38.00;;;;;;5111424;28;20040;-66
2023/12/09 09:41:09;;;;;;;3.45;0.70;;;23.90;38.20;;;;;;5113004;28;20042;-66
2023/12/09 09:43:43;;;;;;;2.85;0.60;;;23.80;38.30;;;;;;5111034;28;20039;-65
2023/12/09 09:46:09;;;;;;;5.03;0.95;;;23.80;38.50;;;;;;5111626;28;20035;-68
2023/12/09 09:48:37;;;;;;;3.05;0.80;;;23.80;38.60;;;;;;5111552;28;20040;-66
2023/12/09 09:51:06;;;;;;;4.13;0.82;;;23.80;38.70;;;;;;5111739;28;20064;-67
2023/12/09 09:56:12;;;;;;;7.22;0.75;;;23.80;38.80;;;;;;5129227;27;20428;-66
2023/12/09 09:58:38;;;;;;;5.88;0.93;;;23.80;38.80;;;;;;5128074;28;20039;-65
2023/12/09 10:01:05;;;;;;;10.00;1.25;;;23.80;38.80;;;;;;5128032;28;20073;-66
2023/12/09 10:03:31;;;;;;;6.75;0.75;;;23.80;38.80;;;;;;5129101;27;20482;-66
2023/12/09 10:05:58;;;;;;;6.65;1.13;;;23.90;38.70;;;;;;5128012;28;20047;-66
2023/12/09 10:08:24;;;;;;;5.07;0.90;;;23.90;38.70;;;;;;5127762;28;20051;-68
2023/12/09 10:10:50;;;;;;;8.75;0.80;;;23.90;38.70;;;;;;5127928;28;20043;-66
2023/12/09 10:13:16;;;;;;;3.40;0.52;;;24.00;38.70;;;;;;5128414;28;20057;-66
2023/12/09 10:15:42;;;;;;;3.35;0.70;;;24.00;38.70;;;;;;5127785;28;20453;-66
2023/12/09 10:18:13;;;;;;;7.05;1.20;;;23.90;38.70;;;;;;5127905;28;20118;-68
2023/12/09 10:20:39;;;;;;;2.58;0.70;;;24.00;38.70;;;;;;5128253;28;20039;-66
2023/12/09 10:23:05;;;;;;;5.20;0.60;;;24.00;38.70;;;;;;5127340;28;20040;-66
2023/12/09 10:25:31;;;;;;;2.60;0.47;;;24.00;38.70;;;;;;5127630;28;20092;-66
2023/12/09 10:27:57;;;;;;;3.00;0.90;;;24.00;38.70;;;;;;5127511;28;20047;-69
2023/12/09 10:30:23;;;;;;;3.67;0.52;;;24.10;38.70;;;;;;5127603;28;20054;-66
2023/12/09 10:32:49;;;;;;;2.75;0.60;;;24.10;38.50;;;;;;5127643;28;20043;-67
2023/12/09 10:35:18;;;;;;;2.97;0.75;;;24.10;38.60;;;;;;5127125;28;20040;-67
2023/12/09 10:37:44;;;;;;;6.50;0.52;;;24.00;38.60;;;;;;5127238;28;20445;-67
2023/12/09 10:40:13;;;;;;;3.10;0.52;;;23.90;38.80;;;;;;5128754;27;20034;-67
2023/12/09 10:42:39;;;;;;;2.53;0.40;;;23.90;38.90;;;;;;5127531;28;20040;-66
2023/12/09 10:45:05;;;;;;;4.88;0.38;;;23.80;39.00;;;;;;5127642;28;20040;-66
2023/12/09 10:47:31;;;;;;;3.55;0.52;;;23.80;39.10;;;;;;5127521;28;20100;-69
2023/12/09 10:49:57;;;;;;;2.72;0.40;;;23.80;39.20;;;;;;5129313;28;20486;-66
2023/12/09 10:52:22;;;;;;;2.55;0.50;;;23.70;39.20;;;;;;5111294;28;20108;-67
2023/12/09 10:54:48;;;;;;;3.28;0.47;;;23.70;39.30;;;;;;5127305;27;20558;-66
2023/12/09 10:57:15;;;;;;;3.33;0.63;;;23.70;39.40;;;;;;5128574;28;20092;-69
2023/12/09 10:59:43;;;;;;;1.67;0.47;;;23.70;39.50;;;;;;5127336;28;20050;-66
2023/12/09 11:02:09;;;;;;;1.48;0.40;;;23.70;39.50;;;;;;5127818;28;20046;-66
2023/12/09 11:04:36;;;;;;;1.27;0.32;;;23.70;39.50;;;;;;5128335;27;20115;-69
2023/12/09 11:07:04;;;;;;;3.50;0.47;;;23.60;39.60;;;;;;5116169;28;20127;-66
2023/12/09 11:09:32;;;;;;;2.25;0.60;;;23.50;39.80;;;;;;5113589;28;20554;-66
2023/12/09 11:11:58;;;;;;;2.08;0.50;;;23.40;40.00;;;;;;5114172;28;20051;-66
2023/12/09 11:14:26;;;;;;;1.42;0.30;;;23.20;40.30;;;;;;5114840;28;20043;-66
2023/12/09 11:16:53;;;;;;;1.55;0.30;;;23.10;40.50;;;;;;5114606;28;20035;-66
2023/12/09 11:19:22;;;;;;;1.13;0.30;;;22.90;40.80;;;;;;5113168;28;20498;-67
2023/12/09 11:21:48;;;;;;;2.25;0.38;;;22.70;41.10;;;;;;5113423;28;20043;-69
2023/12/09 11:24:15;;;;;;;1.05;0.30;;;22.60;41.40;;;;;;5113821;28;20044;-67
2023/12/09 11:26:47;;;;;;;2.15;0.47;;;22.50;41.60;;;;;;5112877;28;20043;-66
2023/12/09 11:29:17;;;;;;;2.92;0.60;;;22.40;41.90;;;;;;5114152;28;20062;-66
2023/12/09 11:31:46;;;;;;;1.25;0.30;;;22.30;42.10;;;;;;5113374;28;20435;-66
2023/12/09 11:36:55;;;;;;;1.67;0.30;;;22.00;42.50;;;;;;5130051;27;20455;-66
2023/12/09 11:39:22;;;;;;;1.60;0.30;;;21.90;42.80;;;;;;5128533;28;20039;-68
2023/12/09 11:41:49;;;;;;;3.40;0.50;;;21.70;43.00;;;;;;5128915;28;20035;-66
2023/12/09 11:44:15;;;;;;;8.88;0.45;;;21.60;43.30;;;;;;5129306;27;20386;-67
2023/12/09 11:46:42;;;;;;;2.42;0.30;;;21.50;43.50;;;;;;5162460;27;20050;-67
2023/12/09 11:49:08;;;;;;;2.47;0.40;;;21.40;43.80;;;;;;5128010;28;20039;-67
2023/12/09 11:51:35;;;;;;;2.33;0.40;;;21.30;44.00;;;;;;5128399;28;20126;-66
2023/12/09 11:54:03;;;;;;;1.70;0.47;;;21.20;44.20;;;;;;5129644;27;20111;-67
2023/12/09 11:56:29;;;;;;;1.55;0.60;;;21.20;44.40;;;;;;5129213;27;20048;-67
2023/12/09 11:58:55;;;;;;;3.30;0.40;;;21.10;44.50;;;;;;5127685;27;20126;-67
2023/12/09 12:01:22;;;;;;;2.55;0.57;;;21.00;44.60;;;;;;5128811;28;20042;-69
2023/12/09 12:03:49;;;;;;;0.63;0.30;;;21.00;44.70;;;;;;5127464;28;20050;-69
2023/12/09 12:06:15;;;;;;;3.33;0.40;;;20.90;44.90;;;;;;5127692;28;20402;-69
2023/12/09 12:08:42;;;;;;;1.52;0.47;;;20.80;45.10;;;;;;5127890;28;20043;-72
2023/12/09 12:11:09;;;;;;;1.65;0.35;;;20.70;45.20;;;;;;5126980;28;20039;-68
2023/12/09 12:13:35;;;;;;;4.85;0.40;;;20.60;45.40;;;;;;5129719;27;20035;-68
2023/12/09 12:16:00;;;;;;;4.88;0.40;;;20.50;45.60;;;;;;5128154;28;20054;-69
2023/12/09 12:18:28;;;;;;;2.08;0.30;;;20.40;45.80;;;;;;5128255;28;20050;-68
2023/12/09 12:20:53;;;;;;;1.13;0.52;;;20.30;45.90;;;;;;5128635;28;20576;-69
2023/12/09 12:23:20;;;;;;;3.08;0.50;;;20.30;46.00;;;;;;5128411;28;20047;-68
2023/12/09 12:25:50;;;;;;;2.55;0.40;;;20.20;46.00;;;;;;5127991;28;20055;-68
2023/12/09 12:28:16;;;;;;;1.65;0.30;;;20.10;46.00;;;;;;5128364;28;20100;-68
2023/12/09 12:30:42;;;;;;;2.47;0.38;;;20.10;46.00;;;;;;5127949;28;20039;-68
2023/12/09 12:33:08;;;;;;;3.42;0.45;;;20.00;46.10;;;;;;5128264;28;20047;-70
2023/12/09 12:35:34;;;;;;;1.88;0.50;;;20.00;46.20;;;;;;5127469;28;20108;-68
2023/12/09 12:37:59;;;;;;;2.55;0.30;;;19.90;46.20;;;;;;5127882;28;20092;-69
2023/12/09 12:40:26;;;;;;;1.38;0.30;;;19.80;46.30;;;;;;5128971;28;20103;-69
2023/12/09 12:42:53;;;;;;;2.83;0.55;;;19.80;46.40;;;;;;5128992;28;20047;-71
2023/12/09 12:45:20;;;;;;;1.95;0.40;;;19.70;46.60;;;;;;5129249;27;20046;-69
2023/12/09 12:47:47;;;;;;;1.02;0.40;;;19.60;46.70;;;;;;5116528;28;20118;-69
2023/12/09 12:50:14;;;;;;;4.72;0.30;;;19.50;46.70;;;;;;5114324;28;20039;-68